createdAt,value
2023-06-19T00:02:09.856Z,99098.88
2023-06-19T00:04:36.806Z,99097.94
2023-06-19T00:07:05.068Z,99095.41
2023-06-19T00:09:33.113Z,99090.63
2023-06-19T00:11:59.740Z,99093.63
2023-06-19T00:14:26.419Z,99093.72
2023-06-19T00:16:54.396Z,99095.88
2023-06-19T00:19:20.985Z,99103.72
2023-06-19T00:21:47.559Z,99097.72
2023-06-19T00:24:14.273Z,99094.94
2023-06-19T00:26:40.932Z,99098.13
2023-06-19T00:29:07.525Z,99095.25
2023-06-19T00:31:34.170Z,99104.59
2023-06-19T00:34:02.124Z,99101.81
2023-06-19T00:36:28.756Z,99092.47
2023-06-19T00:38:55.378Z,99101.59
2023-06-19T00:41:22.529Z,99105.69
2023-06-19T00:43:49.234Z,99096.50
2023-06-19T00:46:15.878Z,99110.38
2023-06-19T00:48:42.644Z,99109.72
2023-06-19T00:51:10.783Z,99110.31
2023-06-19T00:53:38.124Z,99116.06
2023-06-19T00:56:06.240Z,99117.41
2023-06-19T00:58:33.292Z,99110.78
2023-06-19T01:01:08.665Z,99113.94
2023-06-19T01:03:36.462Z,99121.81
2023-06-19T01:06:06.674Z,99117.06
2023-06-19T01:08:52.255Z,99111.69
2023-06-19T01:11:26.813Z,99115.31
2023-06-19T01:13:57.132Z,99120.41
2023-06-19T01:16:24.496Z,99119.72
2023-06-19T01:18:51.551Z,99119.72
2023-06-19T01:21:19.692Z,99122.13
2023-06-19T01:23:47.725Z,99117.91
2023-06-19T01:26:14.709Z,99123.81
2023-06-19T01:28:43.103Z,99112.31
2023-06-19T01:31:14.185Z,99113.66
2023-06-19T01:33:43.680Z,99107.44
2023-06-19T01:36:11.353Z,99106.72
2023-06-19T01:38:39.851Z,99113.66
2023-06-19T01:41:08.138Z,99113.31
2023-06-19T01:43:35.616Z,99114.47
2023-06-19T01:46:02.396Z,99109.56
2023-06-19T01:48:29.157Z,99115.91
2023-06-19T01:50:55.876Z,99112.94
2023-06-19T01:53:22.563Z,99109.03
2023-06-19T01:55:49.238Z,99109.97
2023-06-19T01:58:17.321Z,99109.59
2023-06-19T02:00:43.962Z,99111.44
2023-06-19T02:03:10.787Z,99126.91
2023-06-19T02:05:37.461Z,99135.78
2023-06-19T02:08:04.233Z,99138.56
2023-06-19T02:10:30.830Z,99125.38
2023-06-19T02:12:57.632Z,99130.41
2023-06-19T02:15:25.603Z,99136.53
2023-06-19T02:17:52.203Z,99152.50
2023-06-19T02:20:18.829Z,99147.63
2023-06-19T02:22:45.489Z,99152.50
2023-06-19T02:25:12.437Z,99156.13
2023-06-19T02:27:39.135Z,99154.41
2023-06-19T02:30:07.327Z,99172.28
2023-06-19T02:32:35.485Z,99173.28
2023-06-19T02:35:02.117Z,99174.28
2023-06-19T02:37:28.753Z,99183.22
2023-06-19T02:39:55.384Z,99196.78
2023-06-19T02:42:22.038Z,99196.97
2023-06-19T02:44:48.631Z,99200.13
2023-06-19T02:47:15.242Z,99199.69
2023-06-19T02:49:43.228Z,99212.94
2023-06-19T02:52:09.849Z,99217.72
2023-06-19T02:54:36.540Z,99219.94
2023-06-19T02:57:03.500Z,99216.38
2023-06-19T02:59:30.077Z,99221.00
2023-06-19T03:01:58.796Z,99222.13
2023-06-19T03:04:28.227Z,99221.81
2023-06-19T03:06:57.291Z,99225.28
2023-06-19T03:09:23.934Z,99230.00
2023-06-19T03:11:50.619Z,99223.50
2023-06-19T03:14:17.190Z,99228.75
2023-06-19T03:16:43.886Z,99233.03
2023-06-19T03:19:10.686Z,99233.19
2023-06-19T03:21:37.333Z,99232.13
2023-06-19T03:24:05.701Z,99234.19
2023-06-19T03:26:32.334Z,99241.59
2023-06-19T03:28:58.922Z,99243.34
2023-06-19T03:31:25.505Z,99245.44
2023-06-19T03:33:52.066Z,99253.38
2023-06-19T03:36:18.730Z,99257.75
2023-06-19T03:38:45.408Z,99264.47
2023-06-19T03:41:13.378Z,99266.84
2023-06-19T03:43:40.044Z,99271.47
2023-06-19T03:46:06.710Z,99269.38
2023-06-19T03:48:33.339Z,99269.69
2023-06-19T03:51:00.542Z,99266.63
2023-06-19T03:53:27.250Z,99279.91
2023-06-19T03:55:56.301Z,99281.75
2023-06-19T03:58:24.515Z,99285.00
2023-06-19T04:00:51.947Z,99282.59
2023-06-19T04:03:18.839Z,99289.97
2023-06-19T04:05:45.441Z,99288.59
2023-06-19T04:08:12.240Z,99292.34
2023-06-19T04:10:38.854Z,99309.31
2023-06-19T04:13:05.508Z,99304.69
2023-06-19T04:15:33.762Z,99307.84
2023-06-19T04:18:00.520Z,99322.28
2023-06-19T04:20:27.583Z,99323.06
2023-06-19T04:22:54.203Z,99320.97
2023-06-19T04:25:20.814Z,99321.72
2023-06-19T04:27:47.719Z,99327.47
2023-06-19T04:30:14.416Z,99334.75
2023-06-19T04:32:42.563Z,99336.47
2023-06-19T04:35:09.875Z,99338.47
2023-06-19T04:37:36.833Z,99340.69
2023-06-19T04:40:03.949Z,99334.84
2023-06-19T04:42:30.744Z,99345.28
2023-06-19T04:44:57.496Z,99339.34
2023-06-19T04:47:30.505Z,99347.66
2023-06-19T04:50:01.750Z,99355.44
2023-06-19T04:52:28.368Z,99346.41
2023-06-19T04:54:55.180Z,99351.97
2023-06-19T04:57:22.295Z,99350.94
2023-06-19T04:59:48.969Z,99352.94
2023-06-19T05:02:15.616Z,99347.50
2023-06-19T05:04:45.148Z,99352.69
2023-06-19T05:07:13.240Z,99349.44
2023-06-19T05:09:39.821Z,99354.94
2023-06-19T05:12:07.156Z,99349.22
2023-06-19T05:14:33.853Z,99355.44
2023-06-19T05:17:00.738Z,99358.66
2023-06-19T05:19:27.386Z,99359.25
2023-06-19T05:21:54.020Z,99356.44
2023-06-19T05:24:26.962Z,99358.44
2023-06-19T05:26:53.603Z,99353.63
2023-06-19T05:29:20.174Z,99357.31
2023-06-19T05:31:54.911Z,99356.84
2023-06-19T05:34:21.530Z,99359.94
2023-06-19T05:36:48.107Z,99361.00
2023-06-19T05:39:14.773Z,99352.94
2023-06-19T05:41:42.821Z,99357.63
2023-06-19T05:44:09.448Z,99358.31
2023-06-19T05:46:35.918Z,99360.94
2023-06-19T05:49:07.803Z,99355.28
2023-06-19T05:51:34.410Z,99367.53
2023-06-19T05:54:00.856Z,99371.41
2023-06-19T05:56:27.309Z,99373.81
2023-06-19T05:58:55.244Z,99367.28
2023-06-19T06:01:25.925Z,99368.81
2023-06-19T06:03:56.272Z,99381.91
2023-06-19T06:06:24.667Z,99382.13
2023-06-19T06:08:51.330Z,99392.41
2023-06-19T06:11:18.026Z,99389.19
2023-06-19T06:13:44.522Z,99392.53
2023-06-19T06:16:12.383Z,99389.06
2023-06-19T06:18:39.049Z,99384.47
2023-06-19T06:21:05.657Z,99396.44
2023-06-19T06:23:32.521Z,99392.53
2023-06-19T06:25:59.178Z,99394.53
2023-06-19T06:28:25.854Z,99388.75
2023-06-19T06:30:52.444Z,99394.97
2023-06-19T06:33:20.434Z,99387.44
2023-06-19T06:35:47.070Z,99397.31
2023-06-19T06:38:13.825Z,99394.00
2023-06-19T06:40:40.801Z,99399.44
2023-06-19T06:43:07.430Z,99396.75
2023-06-19T06:45:34.127Z,99402.56
2023-06-19T06:48:00.990Z,99397.41
2023-06-19T06:50:29.054Z,99409.88
2023-06-19T06:52:55.839Z,99414.38
2023-06-19T06:55:22.501Z,99426.13
2023-06-19T06:57:49.153Z,99426.41
2023-06-19T07:00:16.364Z,99427.66
2023-06-19T07:02:42.954Z,99438.41
2023-06-19T07:05:10.375Z,99426.75
2023-06-19T07:07:38.732Z,99437.25
2023-06-19T07:10:06.328Z,99431.78
2023-06-19T07:12:32.949Z,99438.56
2023-06-19T07:14:59.537Z,99453.44
2023-06-19T07:17:26.236Z,99453.00
2023-06-19T07:19:52.912Z,99450.94
2023-06-19T07:22:19.546Z,99448.34
2023-06-19T07:24:48.788Z,99452.25
2023-06-19T07:27:15.395Z,99451.06
2023-06-19T07:29:42.010Z,99452.47
2023-06-19T07:32:08.792Z,99454.53
2023-06-19T07:34:35.429Z,99446.28
2023-06-19T07:37:02.233Z,99449.97
2023-06-19T07:39:28.847Z,99455.66
2023-06-19T07:41:57.275Z,99452.72
2023-06-19T07:44:23.992Z,99446.19
2023-06-19T07:46:50.618Z,99450.22
2023-06-19T07:49:17.338Z,99453.53
2023-06-19T07:51:44.273Z,99458.13
2023-06-19T07:54:10.871Z,99465.28
2023-06-19T07:56:37.495Z,99465.06
2023-06-19T07:59:06.310Z,99471.66
2023-06-19T08:01:32.980Z,99472.94
2023-06-19T08:03:59.962Z,99482.66
2023-06-19T08:06:26.634Z,99486.00
2023-06-19T08:08:53.407Z,99478.56
2023-06-19T08:11:20.134Z,99475.38
2023-06-19T08:13:46.743Z,99485.00
2023-06-19T08:16:15.310Z,99474.06
2023-06-19T08:18:41.968Z,99466.75
2023-06-19T08:21:08.643Z,99462.50
2023-06-19T08:23:35.399Z,99460.63
2023-06-19T08:26:02.642Z,99457.97
2023-06-19T08:28:29.242Z,99451.94
2023-06-19T08:30:55.907Z,99455.13
2023-06-19T08:33:23.957Z,99464.78
2023-06-19T08:35:52.625Z,99465.59
2023-06-19T08:38:19.502Z,99462.88
2023-06-19T08:40:46.492Z,99462.63
2023-06-19T08:43:16.141Z,99455.41
2023-06-19T08:45:42.679Z,99458.06
2023-06-19T08:48:14.674Z,99459.81
2023-06-19T08:50:43.783Z,99448.81
2023-06-19T08:53:10.392Z,99461.16
2023-06-19T08:55:37.076Z,99453.38
2023-06-19T08:58:03.847Z,99459.78
2023-06-19T09:00:31.174Z,99456.13
2023-06-19T09:03:12.265Z,99458.97
2023-06-19T09:05:44.115Z,99466.94
2023-06-19T09:08:14.425Z,99462.31
2023-06-19T09:10:41.126Z,99468.34
2023-06-19T09:13:07.726Z,99461.28
2023-06-19T09:15:35.972Z,99473.59
2023-06-19T09:18:07.220Z,99467.25
2023-06-19T09:20:35.107Z,99468.88
2023-06-19T09:23:03.102Z,99476.06
2023-06-19T09:25:29.881Z,99481.69
2023-06-19T09:27:56.886Z,99478.53
2023-06-19T09:30:24.170Z,99479.78
2023-06-19T09:32:51.008Z,99487.72
2023-06-19T09:35:17.836Z,99487.94
2023-06-19T09:37:46.604Z,99487.56
2023-06-19T09:40:14.642Z,99486.94
2023-06-19T09:42:43.241Z,99483.06
2023-06-19T09:45:12.453Z,99474.53
2023-06-19T09:47:43.857Z,99481.31
2023-06-19T09:50:14.011Z,99482.72
2023-06-19T09:52:41.441Z,99486.63
2023-06-19T09:55:09.153Z,99491.63
2023-06-19T09:57:38.312Z,99481.28
2023-06-19T10:00:07.236Z,99493.50
2023-06-19T10:02:34.241Z,99496.44
2023-06-19T10:05:01.347Z,99490.25
2023-06-19T10:07:34.416Z,99493.72
2023-06-19T10:10:02.871Z,99492.22
2023-06-19T10:12:42.142Z,99496.38
2023-06-19T10:15:10.771Z,99500.91
2023-06-19T10:17:37.817Z,99492.22
2023-06-19T10:20:05.876Z,99499.16
2023-06-19T10:22:32.743Z,99492.31
2023-06-19T10:24:59.640Z,99490.03
2023-06-19T10:27:26.596Z,99482.19
2023-06-19T10:30:04.569Z,99487.56
2023-06-19T10:32:42.047Z,99495.34
2023-06-19T10:35:12.284Z,99484.88
2023-06-19T10:37:38.873Z,99480.22
2023-06-19T10:40:06.950Z,99483.63
2023-06-19T10:42:33.567Z,99483.56
2023-06-19T10:45:03.535Z,99484.84
2023-06-19T10:47:30.383Z,99484.34
2023-06-19T10:49:58.067Z,99481.38
2023-06-19T10:52:25.536Z,99481.31
2023-06-19T10:54:54.467Z,99481.97
2023-06-19T10:57:27.889Z,99476.84
2023-06-19T10:59:54.618Z,99480.34
2023-06-19T11:02:23.981Z,99479.78
2023-06-19T11:04:53.597Z,99483.34
2023-06-19T11:07:20.345Z,99490.25
2023-06-19T11:09:46.988Z,99486.34
2023-06-19T11:12:20.511Z,99478.53
2023-06-19T11:14:48.497Z,99478.53
2023-06-19T11:17:15.491Z,99480.03
2023-06-19T11:19:43.585Z,99469.25
2023-06-19T11:22:10.293Z,99481.13
2023-06-19T11:24:37.325Z,99476.69
2023-06-19T11:27:04.460Z,99471.75
2023-06-19T11:29:31.805Z,99473.03
2023-06-19T11:32:07.446Z,99464.91
2023-06-19T11:34:35.669Z,99469.16
2023-06-19T11:37:03.903Z,99466.50
2023-06-19T11:39:30.578Z,99474.19
2023-06-19T11:41:59.980Z,99459.97
2023-06-19T11:44:26.652Z,99459.69
2023-06-19T11:46:57.851Z,99466.84
2023-06-19T11:49:24.685Z,99462.41
2023-06-19T11:51:53.246Z,99467.88
2023-06-19T11:54:21.244Z,99480.50
2023-06-19T11:56:53.655Z,99476.72
2023-06-19T11:59:20.232Z,99469.75
2023-06-19T12:01:46.866Z,99472.81
2023-06-19T12:04:13.609Z,99461.69
2023-06-19T12:06:40.385Z,99477.09
2023-06-19T12:09:07.277Z,99475.88
2023-06-19T12:11:35.347Z,99467.78
2023-06-19T12:14:05.080Z,99470.22
2023-06-19T12:16:31.774Z,99471.44
2023-06-19T12:18:58.465Z,99468.88
2023-06-19T12:21:33.644Z,99463.97
2023-06-19T12:24:03.144Z,99456.78
2023-06-19T12:26:30.051Z,99451.75
2023-06-19T12:28:58.022Z,99454.56
2023-06-19T12:31:24.779Z,99458.25
2023-06-19T12:33:51.443Z,99460.34
2023-06-19T12:36:18.188Z,99464.50
2023-06-19T12:38:47.501Z,99461.69
2023-06-19T12:41:15.746Z,99459.25
2023-06-19T12:43:42.464Z,99461.13
2023-06-19T12:46:10.499Z,99460.59
2023-06-19T12:48:43.093Z,99448.75
2023-06-19T12:51:09.738Z,99454.75
2023-06-19T12:53:36.549Z,99459.63
2023-06-19T12:56:07.184Z,99454.38
2023-06-19T12:58:37.243Z,99447.88
2023-06-19T13:01:03.807Z,99460.25
2023-06-19T13:03:31.835Z,99462.09
2023-06-19T13:05:58.848Z,99464.00
2023-06-19T13:08:25.533Z,99462.31
2023-06-19T13:10:52.266Z,99461.06
2023-06-19T13:13:19.062Z,99451.84
2023-06-19T13:15:45.748Z,99447.59
2023-06-19T13:18:12.553Z,99450.94
2023-06-19T13:20:40.610Z,99444.03
2023-06-19T13:23:07.258Z,99437.31
2023-06-19T13:25:33.889Z,99445.09
2023-06-19T13:28:00.523Z,99440.38
2023-06-19T13:30:27.216Z,99439.28
2023-06-19T13:32:54.060Z,99430.25
2023-06-19T13:35:20.763Z,99435.25
2023-06-19T13:37:48.876Z,99440.44
2023-06-19T13:40:15.494Z,99439.19
2023-06-19T13:42:42.101Z,99438.97
2023-06-19T13:45:09.901Z,99433.09
2023-06-19T13:47:37.018Z,99437.56
2023-06-19T13:50:04.316Z,99436.09
2023-06-19T13:52:30.909Z,99433.19
2023-06-19T13:54:58.904Z,99438.06
2023-06-19T13:57:25.565Z,99435.50
2023-06-19T13:59:52.087Z,99432.56
2023-06-19T14:02:18.805Z,99438.94
2023-06-19T14:04:45.414Z,99432.69
2023-06-19T14:07:12.039Z,99427.69
2023-06-19T14:09:38.686Z,99435.75
2023-06-19T14:12:07.521Z,99431.34
2023-06-19T14:14:34.181Z,99428.63
2023-06-19T14:17:00.850Z,99427.41
2023-06-19T14:19:27.572Z,99424.75
2023-06-19T14:21:54.259Z,99430.59
2023-06-19T14:24:21.021Z,99431.22
2023-06-19T14:26:47.793Z,99422.03
2023-06-19T14:29:15.751Z,99424.59
2023-06-19T14:31:42.385Z,99419.75
2023-06-19T14:34:09.006Z,99420.13
2023-06-19T14:36:35.651Z,99423.03
2023-06-19T14:39:02.289Z,99418.00
2023-06-19T14:41:28.931Z,99415.69
2023-06-19T14:43:55.530Z,99412.75
2023-06-19T14:46:37.309Z,99412.13
2023-06-19T14:49:04.675Z,99410.06
2023-06-19T14:51:31.276Z,99414.84
2023-06-19T14:53:57.946Z,99413.06
2023-06-19T14:56:24.561Z,99407.22
2023-06-19T14:58:51.206Z,99407.06
2023-06-19T15:01:17.909Z,99407.13
2023-06-19T15:03:46.039Z,99416.28
2023-06-19T15:06:12.762Z,99412.03
2023-06-19T15:08:39.410Z,99411.66
2023-06-19T15:11:06.214Z,99406.09
2023-06-19T15:13:32.838Z,99406.44
2023-06-19T15:15:59.468Z,99401.75
2023-06-19T15:18:26.929Z,99400.16
2023-06-19T15:20:55.082Z,99396.63
2023-06-19T15:23:21.648Z,99391.97
2023-06-19T15:25:48.249Z,99389.31
2023-06-19T15:28:14.914Z,99392.97
2023-06-19T15:30:41.574Z,99394.69
2023-06-19T15:33:08.233Z,99396.72
2023-06-19T15:35:34.878Z,99389.84
2023-06-19T15:38:02.866Z,99400.66
2023-06-19T15:40:29.922Z,99401.25
2023-06-19T15:42:56.545Z,99394.78
2023-06-19T15:45:23.819Z,99388.81
2023-06-19T15:47:50.993Z,99380.72
2023-06-19T15:50:17.970Z,99387.72
2023-06-19T15:52:44.568Z,99377.00
2023-06-19T15:55:12.739Z,99374.19
2023-06-19T15:57:39.356Z,99382.47
2023-06-19T16:00:07.378Z,99373.44
2023-06-19T16:02:34.089Z,99371.88
2023-06-19T16:05:00.790Z,99369.91
2023-06-19T16:07:27.390Z,99366.22
2023-06-19T16:09:55.614Z,99360.28
2023-06-19T16:12:24.154Z,99364.56
2023-06-19T16:14:50.838Z,99359.06
2023-06-19T16:17:18.255Z,99359.66
2023-06-19T16:19:44.880Z,99362.28
2023-06-19T16:22:11.518Z,99369.50
2023-06-19T16:25:27.377Z,99362.19
2023-06-19T16:27:55.426Z,99371.09
2023-06-19T16:30:27.496Z,99365.84
2023-06-19T16:33:09.533Z,99364.66
2023-06-19T16:35:40.965Z,99363.81
2023-06-19T16:39:13.598Z,99365.78
2023-06-19T16:41:23.048Z,99356.94
2023-06-19T16:43:51.169Z,99364.41
2023-06-19T16:46:24.601Z,99362.53
2023-06-19T16:48:55.016Z,99361.13
2023-06-19T16:51:29.708Z,99357.22
2023-06-19T16:53:59.116Z,99356.84
2023-06-19T16:59:49.665Z,99359.22
2023-06-19T17:02:33.158Z,99357.72
2023-06-19T17:05:00.092Z,99361.53
2023-06-19T17:07:41.552Z,99361.47
2023-06-19T17:13:17.279Z,99359.34
2023-06-19T17:15:50.907Z,99355.81
2023-06-19T17:18:17.496Z,99350.06
2023-06-19T17:20:50.239Z,99353.28
2023-06-19T17:23:16.871Z,99363.88
2023-06-19T17:25:45.130Z,99358.81
2023-06-19T17:28:11.737Z,99349.69
2023-06-19T17:30:38.423Z,99345.97
2023-06-19T17:33:06.539Z,99350.81
2023-06-19T17:35:33.192Z,99347.97
2023-06-19T17:37:59.819Z,99344.94
2023-06-19T17:40:28.200Z,99359.16
2023-06-19T17:42:54.872Z,99350.81
2023-06-19T17:45:21.655Z,99347.41
2023-06-19T17:47:48.438Z,99345.41
2023-06-19T17:50:16.718Z,99351.41
2023-06-19T17:52:43.563Z,99348.72
2023-06-19T17:55:10.751Z,99356.34
2023-06-19T17:57:37.792Z,99354.97
2023-06-19T18:00:05.975Z,99349.81
2023-06-19T18:02:32.870Z,99359.09
2023-06-19T18:04:59.825Z,99355.06
2023-06-19T18:07:27.829Z,99352.56
2023-06-19T18:09:54.548Z,99345.78
2023-06-19T18:12:21.157Z,99350.91
2023-06-19T18:14:48.079Z,99353.06
2023-06-19T18:17:15.159Z,99353.91
2023-06-19T18:19:42.213Z,99363.19
2023-06-19T18:22:09.021Z,99370.03
2023-06-19T18:24:37.219Z,99366.38
2023-06-19T18:27:06.955Z,99372.63
2023-06-19T18:29:35.103Z,99371.78
2023-06-19T18:32:01.785Z,99369.59
2023-06-19T18:34:28.416Z,99373.50
2023-06-19T18:36:55.082Z,99376.94
2023-06-19T18:39:22.222Z,99372.72
2023-06-19T18:41:50.223Z,99374.00
2023-06-19T18:44:16.894Z,99375.75
2023-06-19T18:46:44.166Z,99371.63
2023-06-19T18:49:10.920Z,99373.44
2023-06-19T18:51:37.544Z,99360.81
2023-06-19T18:54:04.387Z,99366.19
2023-06-19T18:56:31.018Z,99374.38
2023-06-19T18:58:59.007Z,99373.09
2023-06-19T19:01:25.724Z,99372.25
2023-06-19T19:03:52.419Z,99362.78
2023-06-19T19:06:19.232Z,99366.91
2023-06-19T19:08:46.392Z,99374.84
2023-06-19T19:11:13.049Z,99366.69
2023-06-19T19:13:39.747Z,99373.16
2023-06-19T19:16:07.717Z,99355.31
2023-06-19T19:18:34.585Z,99371.00
2023-06-19T19:21:01.408Z,99373.34
2023-06-19T19:23:28.082Z,99383.22
2023-06-19T19:25:54.794Z,99387.50
2023-06-19T19:28:21.451Z,99392.66
2023-06-19T19:30:48.520Z,99388.97
2023-06-19T19:33:16.723Z,99394.13
2023-06-19T19:35:43.572Z,99394.94
2023-06-19T19:38:10.400Z,99396.25
2023-06-19T19:40:37.024Z,99399.41
2023-06-19T19:43:03.678Z,99396.41
2023-06-19T19:45:30.304Z,99389.25
2023-06-19T19:47:57.010Z,99390.31
2023-06-19T19:50:25.264Z,99397.78
2023-06-19T19:52:52.075Z,99391.94
2023-06-19T19:55:18.710Z,99390.91
2023-06-19T19:57:45.325Z,99386.59
2023-06-19T20:00:13.259Z,99378.22
2023-06-19T20:02:39.965Z,99382.47
2023-06-19T20:05:07.441Z,99386.94
2023-06-19T20:07:35.410Z,99389.63
2023-06-19T20:10:02.118Z,99392.16
2023-06-19T20:12:28.694Z,99394.56
2023-06-19T20:14:55.292Z,99406.75
2023-06-19T20:17:21.977Z,99404.41
2023-06-19T20:19:48.649Z,99410.56
2023-06-19T20:22:15.376Z,99411.16
2023-06-19T20:24:43.430Z,99413.34
2023-06-19T20:27:10.088Z,99424.94
2023-06-19T20:29:36.723Z,99427.00
2023-06-19T20:32:12.524Z,99428.94
2023-06-19T20:37:19.615Z,99416.28
2023-06-19T20:39:49.155Z,99410.94
2023-06-19T20:42:15.801Z,99417.81
2023-06-19T20:44:42.465Z,99414.97
2023-06-19T20:47:09.139Z,99413.34
2023-06-19T20:49:42.122Z,99406.09
2023-06-19T20:52:08.772Z,99403.47
2023-06-19T20:54:35.428Z,99413.72
2023-06-19T20:57:08.082Z,99415.56
2023-06-19T20:59:36.264Z,99404.50
2023-06-19T21:02:03.486Z,99415.22
2023-06-19T21:04:30.896Z,99412.31
2023-06-19T21:06:57.933Z,99412.91
2023-06-19T21:09:24.540Z,99411.09
2023-06-19T21:11:51.177Z,99410.22
2023-06-19T21:14:19.413Z,99408.25
2023-06-19T21:16:46.233Z,99406.56
2023-06-19T21:19:13.082Z,99400.88
2023-06-19T21:21:39.727Z,99403.88
2023-06-19T21:24:06.756Z,99402.97
2023-06-19T21:26:33.388Z,99403.72
2023-06-19T21:29:00.247Z,99399.34
2023-06-19T21:31:28.266Z,99393.66
2023-06-19T21:33:54.883Z,99394.94
2023-06-19T21:36:21.482Z,99392.91
2023-06-19T21:38:48.103Z,99382.25
2023-06-19T21:41:14.863Z,99385.13
2023-06-19T21:43:41.531Z,99378.50
2023-06-19T21:46:08.212Z,99379.09
2023-06-19T21:48:36.258Z,99377.03
2023-06-19T21:51:02.896Z,99379.06
2023-06-19T21:53:29.542Z,99372.81
2023-06-19T21:55:56.140Z,99374.84
2023-06-19T21:58:22.731Z,99375.25
2023-06-19T22:00:49.375Z,99381.06
2023-06-19T22:03:16.273Z,99376.44
2023-06-19T22:05:44.515Z,99370.75
2023-06-19T22:08:11.163Z,99377.31
2023-06-19T22:10:37.920Z,99371.41
2023-06-19T22:13:04.579Z,99370.22
2023-06-19T22:15:31.462Z,99370.75
2023-06-19T22:17:58.384Z,99371.34
2023-06-19T22:20:25.793Z,99372.00
2023-06-19T22:22:53.958Z,99365.75
2023-06-19T22:25:20.618Z,99362.50
2023-06-19T22:27:47.330Z,99376.88
2023-06-19T22:30:15.636Z,99374.63
2023-06-19T22:32:42.884Z,99373.91
2023-06-19T22:35:09.719Z,99374.88
2023-06-19T22:37:36.817Z,99376.09
2023-06-19T22:40:05.878Z,99371.09
2023-06-19T22:42:32.574Z,99374.09
2023-06-19T22:44:59.163Z,99363.16
2023-06-19T22:47:25.765Z,99373.00
2023-06-19T22:49:52.622Z,99369.19
2023-06-19T22:52:19.247Z,99377.19
2023-06-19T22:54:45.957Z,99366.53
2023-06-19T22:57:13.971Z,99367.38
2023-06-19T22:59:40.562Z,99361.78
2023-06-19T23:02:07.510Z,99360.25
2023-06-19T23:04:34.347Z,99353.19
2023-06-19T23:07:00.923Z,99352.41
2023-06-19T23:09:27.876Z,99356.94
2023-06-19T23:11:54.377Z,99349.72
2023-06-19T23:14:22.444Z,99354.19
2023-06-19T23:16:49.045Z,99349.72
2023-06-19T23:19:15.976Z,99348.50
2023-06-19T23:21:42.568Z,99346.84
2023-06-19T23:24:09.454Z,99341.16
2023-06-19T23:26:36.057Z,99343.69
2023-06-19T23:29:03.323Z,99341.75
2023-06-19T23:31:31.311Z,99331.19
2023-06-19T23:33:57.918Z,99335.88
2023-06-19T23:36:24.675Z,99332.34
2023-06-19T23:38:51.285Z,99324.25
2023-06-19T23:41:17.944Z,99325.94
2023-06-19T23:43:44.521Z,99319.25
2023-06-19T23:46:11.229Z,99314.88
2023-06-19T23:48:39.261Z,99324.50
2023-06-19T23:51:06.071Z,99314.88
2023-06-19T23:53:32.827Z,99321.66
2023-06-19T23:55:59.915Z,99320.81
2023-06-19T23:58:26.494Z,99320.50
